sensor_id;sensor_type;location;lat;lon;timestamp;P1;durP1;ratioP1;P2;durP2;ratioP2
71207;SDS011;58938;49.868;8.646;2022-11-04T00:01:48;14.90;;;7.32;;
71207;SDS011;58938;49.868;8.646;2022-11-04T00:04:15;10.90;;;6.68;;
71207;SDS011;58938;49.868;8.646;2022-11-04T00:06:42;12.85;;;6.55;;
71207;SDS011;58938;49.868;8.646;2022-11-04T00:09:09;12.43;;;6.57;;
71207;SDS011;58938;49.868;8.646;2022-11-04T00:11:36;13.07;;;6.32;;
71207;SDS011;58938;49.868;8.646;2022-11-04T00:14:20;12.27;;;6.28;;
71207;SDS011;58938;49.868;8.646;2022-11-04T00:16:46;12.47;;;7.20;;
71207;SDS011;58938;49.868;8.646;2022-11-04T00:19:31;13.70;;;6.78;;
71207;SDS011;58938;49.868;8.646;2022-11-04T00:22:15;10.50;;;6.38;;
71207;SDS011;58938;49.868;8.646;2022-11-04T00:24:59;11.73;;;5.60;;
71207;SDS011;58938;49.868;8.646;2022-11-04T00:27:44;11.43;;;6.50;;
71207;SDS011;58938;49.868;8.646;2022-11-04T00:30:28;10.23;;;5.00;;
71207;SDS011;58938;49.868;8.646;2022-11-04T00:32:54;9.57;;;5.63;;
71207;SDS011;58938;49.868;8.646;2022-11-04T00:35:38;11.48;;;5.47;;
71207;SDS011;58938;49.868;8.646;2022-11-04T00:38:04;10.13;;;5.17;;
71207;SDS011;58938;49.868;8.646;2022-11-04T00:40:29;10.13;;;5.40;;
71207;SDS011;58938;49.868;8.646;2022-11-04T00:42:55;9.95;;;5.47;;
71207;SDS011;58938;49.868;8.646;2022-11-04T00:45:20;10.10;;;4.90;;
71207;SDS011;58938;49.868;8.646;2022-11-04T00:47:46;9.87;;;5.60;;
71207;SDS011;58938;49.868;8.646;2022-11-04T00:50:11;8.95;;;5.20;;
71207;SDS011;58938;49.868;8.646;2022-11-04T00:52:37;10.47;;;5.37;;
71207;SDS011;58938;49.868;8.646;2022-11-04T00:55:03;10.63;;;5.33;;
71207;SDS011;58938;49.868;8.646;2022-11-04T00:57:29;10.20;;;5.72;;
71207;SDS011;58938;49.868;8.646;2022-11-04T00:59:54;10.00;;;4.95;;
71207;SDS011;58938;49.868;8.646;2022-11-04T01:02:20;10.57;;;5.10;;
71207;SDS011;58938;49.868;8.646;2022-11-04T01:04:46;10.07;;;5.70;;
71207;SDS011;58938;49.868;8.646;2022-11-04T01:07:11;8.93;;;4.63;;
71207;SDS011;58938;49.868;8.646;2022-11-04T01:09:37;7.28;;;4.40;;
71207;SDS011;58938;49.868;8.646;2022-11-04T01:12:03;7.73;;;3.67;;
71207;SDS011;58938;49.868;8.646;2022-11-04T01:14:29;7.97;;;3.95;;
71207;SDS011;58938;49.868;8.646;2022-11-04T01:16:54;8.00;;;4.03;;
71207;SDS011;58938;49.868;8.646;2022-11-04T01:19:20;5.97;;;3.60;;
71207;SDS011;58938;49.868;8.646;2022-11-04T01:21:48;5.30;;;2.60;;
71207;SDS011;58938;49.868;8.646;2022-11-04T01:24:15;5.70;;;3.35;;
71207;SDS011;58938;49.868;8.646;2022-11-04T01:26:40;5.57;;;2.90;;
71207;SDS011;58938;49.868;8.646;2022-11-04T01:29:06;5.30;;;2.55;;
71207;SDS011;58938;49.868;8.646;2022-11-04T01:31:31;5.23;;;2.37;;
71207;SDS011;58938;49.868;8.646;2022-11-04T01:33:57;3.77;;;1.87;;
71207;SDS011;58938;49.868;8.646;2022-11-04T01:36:23;4.30;;;1.95;;
71207;SDS011;58938;49.868;8.646;2022-11-04T01:38:50;3.70;;;2.05;;
71207;SDS011;58938;49.868;8.646;2022-11-04T01:41:18;5.53;;;2.13;;
71207;SDS011;58938;49.868;8.646;2022-11-04T01:43:51;3.90;;;2.13;;
71207;SDS011;58938;49.868;8.646;2022-11-04T01:46:40;4.20;;;2.27;;
71207;SDS011;58938;49.868;8.646;2022-11-04T01:51:57;4.32;;;1.88;;
71207;SDS011;58938;49.868;8.646;2022-11-04T01:54:30;3.70;;;1.95;;
71207;SDS011;58938;49.868;8.646;2022-11-04T01:56:58;5.15;;;2.30;;
71207;SDS011;58938;49.868;8.646;2022-11-04T01:59:27;6.07;;;2.00;;
71207;SDS011;58938;49.868;8.646;2022-11-04T02:01:57;7.68;;;2.58;;
71207;SDS011;58938;49.868;8.646;2022-11-04T02:04:22;4.35;;;1.95;;
71207;SDS011;58938;49.868;8.646;2022-11-04T02:06:52;4.33;;;2.20;;
71207;SDS011;58938;49.868;8.646;2022-11-04T02:09:20;3.60;;;2.00;;
71207;SDS011;58938;49.868;8.646;2022-11-04T02:11:47;3.85;;;2.17;;
71207;SDS011;58938;49.868;8.646;2022-11-04T02:14:31;4.65;;;2.20;;
71207;SDS011;58938;49.868;8.646;2022-11-04T02:19:59;3.27;;;1.67;;
71207;SDS011;58938;49.868;8.646;2022-11-04T02:25:26;3.88;;;2.20;;
71207;SDS011;58938;49.868;8.646;2022-11-04T02:31:40;5.63;;;2.78;;
71207;SDS011;58938;49.868;8.646;2022-11-04T02:34:20;4.20;;;2.30;;
71207;SDS011;58938;49.868;8.646;2022-11-04T02:45:06;4.43;;;2.42;;
71207;SDS011;58938;49.868;8.646;2022-11-04T02:50:37;4.85;;;2.33;;
71207;SDS011;58938;49.868;8.646;2022-11-04T02:53:10;4.80;;;2.40;;
71207;SDS011;58938;49.868;8.646;2022-11-04T02:55:57;5.13;;;2.20;;
71207;SDS011;58938;49.868;8.646;2022-11-04T02:58:27;4.40;;;2.10;;
71207;SDS011;58938;49.868;8.646;2022-11-04T03:00:56;4.43;;;1.90;;
71207;SDS011;58938;49.868;8.646;2022-11-04T03:03:25;6.20;;;1.83;;
71207;SDS011;58938;49.868;8.646;2022-11-04T03:05:54;4.40;;;1.90;;
71207;SDS011;58938;49.868;8.646;2022-11-04T03:08:33;3.08;;;1.50;;
71207;SDS011;58938;49.868;8.646;2022-11-04T03:11:03;2.97;;;1.52;;
71207;SDS011;58938;49.868;8.646;2022-11-04T03:13:35;5.65;;;1.77;;
71207;SDS011;58938;49.868;8.646;2022-11-04T03:16:06;4.22;;;2.30;;
71207;SDS011;58938;49.868;8.646;2022-11-04T03:18:37;6.77;;;1.87;;
71207;SDS011;58938;49.868;8.646;2022-11-04T03:21:21;5.30;;;2.13;;
71207;SDS011;58938;49.868;8.646;2022-11-04T03:23:50;4.65;;;2.08;;
71207;SDS011;58938;49.868;8.646;2022-11-04T03:31:41;3.75;;;1.95;;
71207;SDS011;58938;49.868;8.646;2022-11-04T03:34:10;4.63;;;2.03;;
71207;SDS011;58938;49.868;8.646;2022-11-04T03:36:35;4.67;;;2.67;;
71207;SDS011;58938;49.868;8.646;2022-11-04T03:39:01;4.90;;;2.10;;
71207;SDS011;58938;49.868;8.646;2022-11-04T03:41:29;5.30;;;2.00;;
71207;SDS011;58938;49.868;8.646;2022-11-04T03:44:02;3.75;;;2.20;;
71207;SDS011;58938;49.868;8.646;2022-11-04T03:46:28;4.13;;;2.28;;
71207;SDS011;58938;49.868;8.646;2022-11-04T03:48:54;6.30;;;2.10;;
71207;SDS011;58938;49.868;8.646;2022-11-04T03:51:21;5.60;;;2.00;;
71207;SDS011;58938;49.868;8.646;2022-11-04T03:53:47;6.80;;;2.58;;
71207;SDS011;58938;49.868;8.646;2022-11-04T04:06:44;6.20;;;2.63;;
71207;SDS011;58938;49.868;8.646;2022-11-04T04:09:14;4.95;;;2.40;;
71207;SDS011;58938;49.868;8.646;2022-11-04T04:11:55;6.22;;;2.80;;
71207;SDS011;58938;49.868;8.646;2022-11-04T04:17:14;6.10;;;3.38;;
71207;SDS011;58938;49.868;8.646;2022-11-04T04:19:49;6.10;;;2.60;;
71207;SDS011;58938;49.868;8.646;2022-11-04T04:22:22;6.57;;;3.13;;
71207;SDS011;58938;49.868;8.646;2022-11-04T04:24:52;5.53;;;3.17;;
71207;SDS011;58938;49.868;8.646;2022-11-04T04:27:39;7.68;;;2.90;;
71207;SDS011;58938;49.868;8.646;2022-11-04T04:30:10;4.68;;;2.55;;
71207;SDS011;58938;49.868;8.646;2022-11-04T04:32:41;5.00;;;2.63;;
71207;SDS011;58938;49.868;8.646;2022-11-04T04:35:09;6.65;;;2.60;;
71207;SDS011;58938;49.868;8.646;2022-11-04T04:37:57;5.13;;;2.72;;
71207;SDS011;58938;49.868;8.646;2022-11-04T04:40:49;6.40;;;2.60;;
71207;SDS011;58938;49.868;8.646;2022-11-04T04:43:39;11.35;;;2.90;;
71207;SDS011;58938;49.868;8.646;2022-11-04T04:46:26;7.07;;;2.80;;
71207;SDS011;58938;49.868;8.646;2022-11-04T04:48:53;9.05;;;3.67;;
71207;SDS011;58938;49.868;8.646;2022-11-04T04:51:18;6.63;;;3.37;;
71207;SDS011;58938;49.868;8.646;2022-11-04T04:53:44;6.28;;;2.55;;
71207;SDS011;58938;49.868;8.646;2022-11-04T04:56:09;9.83;;;2.90;;
71207;SDS011;58938;49.868;8.646;2022-11-04T04:58:35;8.52;;;2.88;;
71207;SDS011;58938;49.868;8.646;2022-11-04T05:01:02;5.70;;;2.40;;
71207;SDS011;58938;49.868;8.646;2022-11-04T05:03:28;7.45;;;2.85;;
71207;SDS011;58938;49.868;8.646;2022-11-04T05:05:53;6.80;;;2.87;;
71207;SDS011;58938;49.868;8.646;2022-11-04T05:08:19;9.93;;;2.80;;
71207;SDS011;58938;49.868;8.646;2022-11-04T05:10:45;7.10;;;2.90;;
71207;SDS011;58938;49.868;8.646;2022-11-04T05:13:11;7.18;;;3.35;;
71207;SDS011;58938;49.868;8.646;2022-11-04T05:15:54;7.77;;;2.60;;
71207;SDS011;58938;49.868;8.646;2022-11-04T05:18:20;7.53;;;2.72;;
71207;SDS011;58938;49.868;8.646;2022-11-04T05:20:46;8.88;;;2.92;;
71207;SDS011;58938;49.868;8.646;2022-11-04T05:23:11;6.83;;;2.93;;
71207;SDS011;58938;49.868;8.646;2022-11-04T05:25:38;6.72;;;2.90;;
71207;SDS011;58938;49.868;8.646;2022-11-04T05:28:04;7.07;;;3.20;;
71207;SDS011;58938;49.868;8.646;2022-11-04T05:30:30;10.00;;;3.00;;
71207;SDS011;58938;49.868;8.646;2022-11-04T05:32:56;6.40;;;2.83;;
71207;SDS011;58938;49.868;8.646;2022-11-04T05:35:21;6.28;;;2.30;;
71207;SDS011;58938;49.868;8.646;2022-11-04T05:37:47;6.87;;;2.33;;
71207;SDS011;58938;49.868;8.646;2022-11-04T05:40:13;5.97;;;2.85;;
71207;SDS011;58938;49.868;8.646;2022-11-04T05:42:39;6.77;;;2.43;;
71207;SDS011;58938;49.868;8.646;2022-11-04T05:45:05;6.97;;;2.72;;
71207;SDS011;58938;49.868;8.646;2022-11-04T05:47:31;7.32;;;2.70;;
71207;SDS011;58938;49.868;8.646;2022-11-04T05:49:56;8.17;;;2.37;;
71207;SDS011;58938;49.868;8.646;2022-11-04T05:52:23;7.78;;;3.03;;
71207;SDS011;58938;49.868;8.646;2022-11-04T05:54:49;9.23;;;2.90;;
71207;SDS011;58938;49.868;8.646;2022-11-04T05:57:14;10.45;;;3.10;;
71207;SDS011;58938;49.868;8.646;2022-11-04T05:59:40;7.97;;;3.13;;
71207;SDS011;58938;49.868;8.646;2022-11-04T06:02:05;8.47;;;2.67;;
71207;SDS011;58938;49.868;8.646;2022-11-04T06:04:31;9.02;;;2.90;;
71207;SDS011;58938;49.868;8.646;2022-11-04T06:06:57;6.13;;;2.50;;
71207;SDS011;58938;49.868;8.646;2022-11-04T06:09:23;7.10;;;2.70;;
71207;SDS011;58938;49.868;8.646;2022-11-04T06:12:06;10.68;;;3.35;;
71207;SDS011;58938;49.868;8.646;2022-11-04T06:14:41;7.53;;;2.70;;
71207;SDS011;58938;49.868;8.646;2022-11-04T06:17:15;6.85;;;2.90;;
71207;SDS011;58938;49.868;8.646;2022-11-04T06:19:42;6.63;;;2.97;;
71207;SDS011;58938;49.868;8.646;2022-11-04T06:22:09;6.80;;;2.38;;
71207;SDS011;58938;49.868;8.646;2022-11-04T06:24:36;7.77;;;2.57;;
71207;SDS011;58938;49.868;8.646;2022-11-04T06:27:02;5.90;;;2.53;;
71207;SDS011;58938;49.868;8.646;2022-11-04T06:29:27;8.50;;;2.97;;
71207;SDS011;58938;49.868;8.646;2022-11-04T06:31:53;6.00;;;2.30;;
71207;SDS011;58938;49.868;8.646;2022-11-04T06:34:19;7.80;;;2.63;;
71207;SDS011;58938;49.868;8.646;2022-11-04T06:36:44;9.52;;;2.97;;
71207;SDS011;58938;49.868;8.646;2022-11-04T06:39:10;9.27;;;2.93;;
71207;SDS011;58938;49.868;8.646;2022-11-04T06:41:36;12.18;;;2.80;;
71207;SDS011;58938;49.868;8.646;2022-11-04T06:44:02;7.30;;;2.30;;
71207;SDS011;58938;49.868;8.646;2022-11-04T06:48:57;5.65;;;3.28;;
71207;SDS011;58938;49.868;8.646;2022-11-04T06:51:23;9.17;;;2.30;;
71207;SDS011;58938;49.868;8.646;2022-11-04T06:53:49;10.93;;;3.10;;
71207;SDS011;58938;49.868;8.646;2022-11-04T06:56:15;7.63;;;3.73;;
71207;SDS011;58938;49.868;8.646;2022-11-04T06:58:41;8.80;;;2.80;;
71207;SDS011;58938;49.868;8.646;2022-11-04T07:01:06;7.80;;;2.83;;
71207;SDS011;58938;49.868;8.646;2022-11-04T07:03:32;14.75;;;2.88;;
71207;SDS011;58938;49.868;8.646;2022-11-04T07:05:57;8.90;;;2.93;;
71207;SDS011;58938;49.868;8.646;2022-11-04T07:08:23;5.80;;;2.57;;
71207;SDS011;58938;49.868;8.646;2022-11-04T07:10:49;6.97;;;2.83;;
71207;SDS011;58938;49.868;8.646;2022-11-04T07:13:14;7.93;;;3.10;;
71207;SDS011;58938;49.868;8.646;2022-11-04T07:15:41;8.43;;;2.38;;
71207;SDS011;58938;49.868;8.646;2022-11-04T07:18:07;7.83;;;2.37;;
71207;SDS011;58938;49.868;8.646;2022-11-04T07:20:33;7.43;;;2.50;;
71207;SDS011;58938;49.868;8.646;2022-11-04T07:23:01;8.80;;;3.27;;
71207;SDS011;58938;49.868;8.646;2022-11-04T07:25:27;9.63;;;2.92;;
71207;SDS011;58938;49.868;8.646;2022-11-04T07:27:52;9.20;;;2.73;;
71207;SDS011;58938;49.868;8.646;2022-11-04T07:30:18;9.55;;;2.75;;
71207;SDS011;58938;49.868;8.646;2022-11-04T07:32:47;6.38;;;2.20;;
71207;SDS011;58938;49.868;8.646;2022-11-04T07:35:12;5.77;;;2.50;;
71207;SDS011;58938;49.868;8.646;2022-11-04T07:37:38;9.23;;;2.60;;
71207;SDS011;58938;49.868;8.646;2022-11-04T07:40:04;7.10;;;2.43;;
71207;SDS011;58938;49.868;8.646;2022-11-04T07:42:30;7.35;;;2.60;;
71207;SDS011;58938;49.868;8.646;2022-11-04T07:44:56;8.33;;;2.27;;
71207;SDS011;58938;49.868;8.646;2022-11-04T07:47:21;6.37;;;2.23;;
71207;SDS011;58938;49.868;8.646;2022-11-04T07:49:47;7.20;;;2.40;;
71207;SDS011;58938;49.868;8.646;2022-11-04T07:52:13;4.35;;;1.85;;
71207;SDS011;58938;49.868;8.646;2022-11-04T07:54:38;16.40;;;4.13;;
71207;SDS011;58938;49.868;8.646;2022-11-04T07:57:04;7.70;;;2.60;;
71207;SDS011;58938;49.868;8.646;2022-11-04T07:59:29;6.47;;;2.70;;
71207;SDS011;58938;49.868;8.646;2022-11-04T08:01:55;7.80;;;2.40;;
71207;SDS011;58938;49.868;8.646;2022-11-04T08:04:21;5.27;;;1.70;;
71207;SDS011;58938;49.868;8.646;2022-11-04T08:06:46;6.28;;;2.25;;
71207;SDS011;58938;49.868;8.646;2022-11-04T08:09:12;6.20;;;2.40;;
71207;SDS011;58938;49.868;8.646;2022-11-04T08:11:37;7.05;;;2.63;;
71207;SDS011;58938;49.868;8.646;2022-11-04T08:14:03;10.03;;;2.33;;
71207;SDS011;58938;49.868;8.646;2022-11-04T08:16:29;6.28;;;2.63;;
71207;SDS011;58938;49.868;8.646;2022-11-04T08:18:55;6.28;;;2.33;;
71207;SDS011;58938;49.868;8.646;2022-11-04T08:21:26;7.13;;;2.33;;
71207;SDS011;58938;49.868;8.646;2022-11-04T08:23:52;8.05;;;2.42;;
71207;SDS011;58938;49.868;8.646;2022-11-04T08:26:19;9.85;;;2.42;;
71207;SDS011;58938;49.868;8.646;2022-11-04T08:28:45;6.20;;;2.30;;
71207;SDS011;58938;49.868;8.646;2022-11-04T08:33:43;6.82;;;2.85;;
71207;SDS011;58938;49.868;8.646;2022-11-04T08:36:11;7.57;;;2.60;;
71207;SDS011;58938;49.868;8.646;2022-11-04T08:38:44;6.82;;;2.78;;
71207;SDS011;58938;49.868;8.646;2022-11-04T08:41:11;9.60;;;2.30;;
71207;SDS011;58938;49.868;8.646;2022-11-04T08:43:38;8.75;;;2.08;;
71207;SDS011;58938;49.868;8.646;2022-11-04T08:46:05;8.70;;;2.53;;
71207;SDS011;58938;49.868;8.646;2022-11-04T08:48:33;6.40;;;2.50;;
71207;SDS011;58938;49.868;8.646;2022-11-04T08:50:59;10.13;;;2.40;;
71207;SDS011;58938;49.868;8.646;2022-11-04T08:53:27;9.40;;;2.25;;
71207;SDS011;58938;49.868;8.646;2022-11-04T08:55:52;7.78;;;2.40;;
71207;SDS011;58938;49.868;8.646;2022-11-04T08:58:19;6.57;;;2.33;;
71207;SDS011;58938;49.868;8.646;2022-11-04T09:00:45;5.47;;;2.15;;
71207;SDS011;58938;49.868;8.646;2022-11-04T09:03:10;11.65;;;2.85;;
71207;SDS011;58938;49.868;8.646;2022-11-04T09:05:37;8.13;;;2.40;;
71207;SDS011;58938;49.868;8.646;2022-11-04T09:08:10;9.10;;;2.30;;
71207;SDS011;58938;49.868;8.646;2022-11-04T09:10:39;8.68;;;2.60;;
71207;SDS011;58938;49.868;8.646;2022-11-04T09:13:07;8.50;;;2.63;;
71207;SDS011;58938;49.868;8.646;2022-11-04T09:15:34;9.38;;;2.60;;
71207;SDS011;58938;49.868;8.646;2022-11-04T09:18:00;10.82;;;2.35;;
71207;SDS011;58938;49.868;8.646;2022-11-04T09:20:26;6.80;;;2.50;;
71207;SDS011;58938;49.868;8.646;2022-11-04T09:22:54;7.90;;;2.22;;
71207;SDS011;58938;49.868;8.646;2022-11-04T09:25:19;7.25;;;2.50;;
71207;SDS011;58938;49.868;8.646;2022-11-04T09:27:45;6.33;;;2.50;;
71207;SDS011;58938;49.868;8.646;2022-11-04T09:30:11;7.10;;;2.25;;
71207;SDS011;58938;49.868;8.646;2022-11-04T09:32:36;5.50;;;2.40;;
71207;SDS011;58938;49.868;8.646;2022-11-04T09:35:02;8.52;;;2.50;;
71207;SDS011;58938;49.868;8.646;2022-11-04T09:37:29;6.38;;;2.50;;
71207;SDS011;58938;49.868;8.646;2022-11-04T09:39:54;5.07;;;2.07;;
71207;SDS011;58938;49.868;8.646;2022-11-04T09:42:33;8.52;;;2.97;;
71207;SDS011;58938;49.868;8.646;2022-11-04T09:45:16;10.32;;;2.85;;
71207;SDS011;58938;49.868;8.646;2022-11-04T09:47:44;5.37;;;2.27;;
71207;SDS011;58938;49.868;8.646;2022-11-04T09:50:15;7.63;;;2.17;;
71207;SDS011;58938;49.868;8.646;2022-11-04T09:52:54;5.93;;;2.67;;
71207;SDS011;58938;49.868;8.646;2022-11-04T09:55:30;8.05;;;2.55;;
71207;SDS011;58938;49.868;8.646;2022-11-04T09:57:57;6.65;;;2.47;;
71207;SDS011;58938;49.868;8.646;2022-11-04T10:00:23;11.07;;;2.40;;
71207;SDS011;58938;49.868;8.646;2022-11-04T10:11:22;8.00;;;2.38;;
71207;SDS011;58938;49.868;8.646;2022-11-04T10:13:57;7.82;;;2.60;;
71207;SDS011;58938;49.868;8.646;2022-11-04T10:16:45;8.80;;;2.60;;
71207;SDS011;58938;49.868;8.646;2022-11-04T10:20:07;6.40;;;2.38;;
71207;SDS011;58938;49.868;8.646;2022-11-04T10:25:22;7.07;;;2.10;;
71207;SDS011;58938;49.868;8.646;2022-11-04T10:28:11;6.93;;;2.30;;
71207;SDS011;58938;49.868;8.646;2022-11-04T10:30:42;6.95;;;2.10;;
71207;SDS011;58938;49.868;8.646;2022-11-04T10:33:16;7.80;;;2.28;;
71207;SDS011;58938;49.868;8.646;2022-11-04T10:35:48;9.63;;;2.33;;
71207;SDS011;58938;49.868;8.646;2022-11-04T10:38:32;6.22;;;2.10;;
71207;SDS011;58938;49.868;8.646;2022-11-04T10:41:11;8.30;;;2.50;;
71207;SDS011;58938;49.868;8.646;2022-11-04T10:44:09;5.82;;;2.30;;
71207;SDS011;58938;49.868;8.646;2022-11-04T10:52:04;6.65;;;2.28;;
71207;SDS011;58938;49.868;8.646;2022-11-04T10:54:33;10.65;;;2.15;;
71207;SDS011;58938;49.868;8.646;2022-11-04T10:57:06;8.83;;;2.33;;
71207;SDS011;58938;49.868;8.646;2022-11-04T11:02:16;8.90;;;2.60;;
71207;SDS011;58938;49.868;8.646;2022-11-04T11:04:42;8.93;;;2.53;;
71207;SDS011;58938;49.868;8.646;2022-11-04T11:07:12;11.45;;;2.75;;
71207;SDS011;58938;49.868;8.646;2022-11-04T11:09:51;7.72;;;2.75;;
71207;SDS011;58938;49.868;8.646;2022-11-04T11:12:21;6.22;;;2.17;;
71207;SDS011;58938;49.868;8.646;2022-11-04T11:14:54;8.55;;;2.80;;
71207;SDS011;58938;49.868;8.646;2022-11-04T11:17:34;8.03;;;2.10;;
71207;SDS011;58938;49.868;8.646;2022-11-04T11:20:05;5.10;;;2.15;;
71207;SDS011;58938;49.868;8.646;2022-11-04T11:22:43;6.03;;;2.10;;
71207;SDS011;58938;49.868;8.646;2022-11-04T11:25:21;6.85;;;2.03;;
71207;SDS011;58938;49.868;8.646;2022-11-04T11:35:30;9.77;;;2.60;;
71207;SDS011;58938;49.868;8.646;2022-11-04T11:37:59;6.25;;;1.90;;
71207;SDS011;58938;49.868;8.646;2022-11-04T11:40:29;8.23;;;2.53;;
71207;SDS011;58938;49.868;8.646;2022-11-04T11:42:58;5.93;;;1.70;;
71207;SDS011;58938;49.868;8.646;2022-11-04T11:45:27;7.43;;;2.00;;
71207;SDS011;58938;49.868;8.646;2022-11-04T11:47:53;6.60;;;1.90;;
71207;SDS011;58938;49.868;8.646;2022-11-04T11:56:24;8.45;;;2.20;;
71207;SDS011;58938;49.868;8.646;2022-11-04T11:58:54;9.65;;;2.67;;
71207;SDS011;58938;49.868;8.646;2022-11-04T12:01:35;6.25;;;2.13;;
71207;SDS011;58938;49.868;8.646;2022-11-04T12:04:10;6.95;;;2.13;;
71207;SDS011;58938;49.868;8.646;2022-11-04T12:09:29;7.80;;;2.28;;
71207;SDS011;58938;49.868;8.646;2022-11-04T12:12:21;8.57;;;2.88;;
71207;SDS011;58938;49.868;8.646;2022-11-04T12:20:27;9.43;;;2.37;;
71207;SDS011;58938;49.868;8.646;2022-11-04T12:23:23;9.52;;;3.58;;
71207;SDS011;58938;49.868;8.646;2022-11-04T12:26:09;5.95;;;2.25;;
71207;SDS011;58938;49.868;8.646;2022-11-04T12:31:50;7.72;;;2.90;;
71207;SDS011;58938;49.868;8.646;2022-11-04T12:42:45;7.63;;;3.35;;
71207;SDS011;58938;49.868;8.646;2022-11-04T12:45:33;6.38;;;2.85;;
71207;SDS011;58938;49.868;8.646;2022-11-04T12:56:38;6.55;;;3.13;;
71207;SDS011;58938;49.868;8.646;2022-11-04T13:02:50;5.83;;;3.10;;
71207;SDS011;58938;49.868;8.646;2022-11-04T13:04:58;7.72;;;2.88;;
71207;SDS011;58938;49.868;8.646;2022-11-04T13:07:42;6.47;;;2.90;;
71207;SDS011;58938;49.868;8.646;2022-11-04T13:10:29;6.55;;;2.70;;
71207;SDS011;58938;49.868;8.646;2022-11-04T13:13:26;7.18;;;2.25;;
71207;SDS011;58938;49.868;8.646;2022-11-04T13:15:57;5.63;;;2.80;;
71207;SDS011;58938;49.868;8.646;2022-11-04T13:18:27;5.75;;;2.55;;
71207;SDS011;58938;49.868;8.646;2022-11-04T13:21:07;5.55;;;2.65;;
71207;SDS011;58938;49.868;8.646;2022-11-04T13:23:38;5.78;;;2.50;;
71207;SDS011;58938;49.868;8.646;2022-11-04T13:26:06;6.22;;;2.63;;
71207;SDS011;58938;49.868;8.646;2022-11-04T13:28:37;4.63;;;1.80;;
71207;SDS011;58938;49.868;8.646;2022-11-04T13:33:50;6.18;;;2.05;;
71207;SDS011;58938;49.868;8.646;2022-11-04T13:36:56;6.85;;;2.47;;
71207;SDS011;58938;49.868;8.646;2022-11-04T13:39:38;8.10;;;2.55;;
71207;SDS011;58938;49.868;8.646;2022-11-04T13:44:47;7.15;;;2.45;;
71207;SDS011;58938;49.868;8.646;2022-11-04T13:47:17;6.32;;;3.10;;
71207;SDS011;58938;49.868;8.646;2022-11-04T13:49:49;8.63;;;2.67;;
71207;SDS011;58938;49.868;8.646;2022-11-04T13:52:17;4.78;;;2.58;;
71207;SDS011;58938;49.868;8.646;2022-11-04T13:57:16;8.55;;;2.88;;
71207;SDS011;58938;49.868;8.646;2022-11-04T14:02:35;7.38;;;4.07;;
71207;SDS011;58938;49.868;8.646;2022-11-04T14:05:43;9.43;;;2.70;;
71207;SDS011;58938;49.868;8.646;2022-11-04T14:10:35;7.65;;;3.33;;
71207;SDS011;58938;49.868;8.646;2022-11-04T14:18:35;8.50;;;3.83;;
71207;SDS011;58938;49.868;8.646;2022-11-04T14:21:16;8.07;;;3.15;;
71207;SDS011;58938;49.868;8.646;2022-11-04T14:23:48;7.88;;;3.30;;
71207;SDS011;58938;49.868;8.646;2022-11-04T14:26:28;10.68;;;3.58;;
71207;SDS011;58938;49.868;8.646;2022-11-04T14:31:51;9.60;;;4.13;;
71207;SDS011;58938;49.868;8.646;2022-11-04T14:37:02;8.38;;;2.90;;
71207;SDS011;58938;49.868;8.646;2022-11-04T14:39:33;5.78;;;3.00;;
71207;SDS011;58938;49.868;8.646;2022-11-04T14:42:04;9.45;;;3.33;;
71207;SDS011;58938;49.868;8.646;2022-11-04T14:50:03;7.03;;;2.92;;
71207;SDS011;58938;49.868;8.646;2022-11-04T14:52:36;7.25;;;2.58;;
71207;SDS011;58938;49.868;8.646;2022-11-04T14:55:21;7.95;;;2.63;;
71207;SDS011;58938;49.868;8.646;2022-11-04T14:57:50;7.97;;;2.60;;
71207;SDS011;58938;49.868;8.646;2022-11-04T15:00:27;5.55;;;2.40;;
71207;SDS011;58938;49.868;8.646;2022-11-04T15:03:09;11.43;;;2.30;;
71207;SDS011;58938;49.868;8.646;2022-11-04T15:05:36;7.10;;;2.78;;
71207;SDS011;58938;49.868;8.646;2022-11-04T15:11:15;6.67;;;2.40;;
71207;SDS011;58938;49.868;8.646;2022-11-04T15:14:08;7.90;;;2.47;;
71207;SDS011;58938;49.868;8.646;2022-11-04T15:16:39;7.53;;;2.95;;
71207;SDS011;58938;49.868;8.646;2022-11-04T15:19:07;4.43;;;2.35;;
71207;SDS011;58938;49.868;8.646;2022-11-04T15:21:37;7.03;;;2.20;;
71207;SDS011;58938;49.868;8.646;2022-11-04T15:24:04;5.83;;;2.37;;
71207;SDS011;58938;49.868;8.646;2022-11-04T15:26:31;6.78;;;2.28;;
71207;SDS011;58938;49.868;8.646;2022-11-04T15:28:59;9.07;;;3.08;;
71207;SDS011;58938;49.868;8.646;2022-11-04T15:31:37;7.78;;;2.75;;
71207;SDS011;58938;49.868;8.646;2022-11-04T15:34:04;7.53;;;2.30;;
71207;SDS011;58938;49.868;8.646;2022-11-04T15:36:35;7.15;;;2.20;;
71207;SDS011;58938;49.868;8.646;2022-11-04T15:39:11;11.07;;;3.00;;
71207;SDS011;58938;49.868;8.646;2022-11-04T15:41:41;11.93;;;2.95;;
71207;SDS011;58938;49.868;8.646;2022-11-04T15:44:30;9.88;;;2.85;;
71207;SDS011;58938;49.868;8.646;2022-11-04T15:47:01;11.07;;;2.97;;
71207;SDS011;58938;49.868;8.646;2022-11-04T15:49:43;10.88;;;3.15;;
71207;SDS011;58938;49.868;8.646;2022-11-04T15:52:27;10.82;;;3.90;;
71207;SDS011;58938;49.868;8.646;2022-11-04T15:54:58;8.82;;;3.58;;
71207;SDS011;58938;49.868;8.646;2022-11-04T15:57:25;15.48;;;6.35;;
71207;SDS011;58938;49.868;8.646;2022-11-04T16:02:44;8.93;;;3.60;;
71207;SDS011;58938;49.868;8.646;2022-11-04T16:07:41;13.18;;;4.00;;
71207;SDS011;58938;49.868;8.646;2022-11-04T16:12:56;10.07;;;3.90;;
71207;SDS011;58938;49.868;8.646;2022-11-04T16:15:33;7.60;;;3.90;;
71207;SDS011;58938;49.868;8.646;2022-11-04T16:18:03;8.07;;;3.35;;
71207;SDS011;58938;49.868;8.646;2022-11-04T16:20:31;9.48;;;4.07;;
71207;SDS011;58938;49.868;8.646;2022-11-04T16:22:59;9.97;;;3.70;;
71207;SDS011;58938;49.868;8.646;2022-11-04T16:25:28;7.25;;;3.65;;
71207;SDS011;58938;49.868;8.646;2022-11-04T16:27:58;10.88;;;4.05;;
71207;SDS011;58938;49.868;8.646;2022-11-04T16:30:24;7.10;;;3.63;;
71207;SDS011;58938;49.868;8.646;2022-11-04T16:32:53;7.10;;;3.33;;
71207;SDS011;58938;49.868;8.646;2022-11-04T16:35:30;7.47;;;3.58;;
71207;SDS011;58938;49.868;8.646;2022-11-04T16:37:59;9.70;;;3.47;;
71207;SDS011;58938;49.868;8.646;2022-11-04T16:40:25;9.45;;;3.97;;
71207;SDS011;58938;49.868;8.646;2022-11-04T16:42:51;13.93;;;5.05;;
71207;SDS011;58938;49.868;8.646;2022-11-04T16:45:22;8.00;;;4.03;;
71207;SDS011;58938;49.868;8.646;2022-11-04T16:47:54;8.80;;;4.45;;
71207;SDS011;58938;49.868;8.646;2022-11-04T16:50:21;7.37;;;4.10;;
71207;SDS011;58938;49.868;8.646;2022-11-04T16:52:48;7.93;;;4.45;;
71207;SDS011;58938;49.868;8.646;2022-11-04T16:55:15;11.20;;;4.50;;
71207;SDS011;58938;49.868;8.646;2022-11-04T16:57:42;8.70;;;4.70;;
71207;SDS011;58938;49.868;8.646;2022-11-04T17:00:10;12.70;;;5.32;;
71207;SDS011;58938;49.868;8.646;2022-11-04T17:02:42;15.10;;;4.70;;
71207;SDS011;58938;49.868;8.646;2022-11-04T17:05:08;10.90;;;4.45;;
71207;SDS011;58938;49.868;8.646;2022-11-04T17:07:37;9.23;;;4.13;;
71207;SDS011;58938;49.868;8.646;2022-11-04T17:10:03;10.23;;;5.18;;
71207;SDS011;58938;49.868;8.646;2022-11-04T17:12:35;11.57;;;5.50;;
71207;SDS011;58938;49.868;8.646;2022-11-04T17:15:02;12.55;;;5.03;;
71207;SDS011;58938;49.868;8.646;2022-11-04T17:17:27;10.52;;;5.68;;
71207;SDS011;58938;49.868;8.646;2022-11-04T17:19:53;12.73;;;5.20;;
71207;SDS011;58938;49.868;8.646;2022-11-04T17:22:18;12.57;;;5.03;;
71207;SDS011;58938;49.868;8.646;2022-11-04T17:24:44;9.00;;;5.03;;
71207;SDS011;58938;49.868;8.646;2022-11-04T17:27:09;11.70;;;5.53;;
71207;SDS011;58938;49.868;8.646;2022-11-04T17:29:35;13.97;;;5.47;;
71207;SDS011;58938;49.868;8.646;2022-11-04T17:32:01;13.57;;;5.93;;
71207;SDS011;58938;49.868;8.646;2022-11-04T17:34:27;11.52;;;5.95;;
71207;SDS011;58938;49.868;8.646;2022-11-04T17:36:53;13.00;;;6.57;;
71207;SDS011;58938;49.868;8.646;2022-11-04T17:39:19;12.20;;;5.93;;